»·PEaware :: N6338F KLAX-KSNA

N6338F :: KLAX-KSNA

FLIGHT INFORMATION

Flight Status: Arrived
Operator: Privately registered:
United States
More flights under this callsign
Pilot: William C. (18994)
Aircraft: CESSNA 172 SKYHAWK
(C172)
More flights by this aircraft type
Origin: KLAX Los Angeles Intl
United States
Destination: KSNA John Wayne-Orange Co
United States
More flights between these airports :: More routes between these airports
Route: +SLI8 SLI
File this flight plan on PilotEdge
Remarks: I-6 Rating
Altitude:
(Current/Filed)
4,000ft
Speed:
(Current/Filed)
110kts
Departed: 30-Mar-19 12:05 PM
Arrived: 30-Mar-19 12:53 PM
Distance/Time
Traveled:
31nm/0:48
Distance/Time
To Go:
Arrived

Flight Plot

Page will automatically refresh every two minutes.


Map Options




Map Legend


Flown Route
Filed Route
Departure Airport
Arrival Airport
Navaid (VOR, NDB)
Fix

Horizontal Profiles

Position Reports

Time Latitude Longitude Heading Altitude Ground
Speed
30-Mar-19 11:48 33.932738 -118.399121 21 111ft 0kts
30-Mar-19 11:49 33.932738 -118.399121 21 111ft 0kts
30-Mar-19 11:50 33.932738 -118.399121 21 111ft 0kts
30-Mar-19 11:51 33.932738 -118.399121 21 111ft 0kts
30-Mar-19 11:52 33.932738 -118.399121 21 111ft 0kts
30-Mar-19 11:53 33.932738 -118.399121 21 111ft 0kts
30-Mar-19 11:54 33.932738 -118.399121 21 111ft 0kts
30-Mar-19 11:55 33.932738 -118.399121 21 111ft 0kts
30-Mar-19 11:57 33.932738 -118.399121 21 111ft 0kts
30-Mar-19 11:58 33.932738 -118.399121 21 111ft 0kts
30-Mar-19 11:59 33.932738 -118.399121 21 111ft 0kts
30-Mar-19 12:00 33.933826 -118.398407 67 109ft 10kts
30-Mar-19 12:01 33.934904 -118.394540 81 105ft 22kts
30-Mar-19 12:02 33.935703 -118.386778 83 99ft 27kts
30-Mar-19 12:03 33.936405 -118.382780 4 96ft 0kts
30-Mar-19 12:04 33.936405 -118.382780 4 96ft 0kts
30-Mar-19 12:05 33.937191 -118.384501 263 98ft 44kts
30-Mar-19 12:06 33.934581 -118.409276 263 947ft 77kts
30-Mar-19 12:07 33.932803 -118.436261 261 1900ft 81kts
30-Mar-19 12:08 33.915994 -118.454337 216 2798ft 84kts
30-Mar-19 12:09 33.896389 -118.471448 221 3631ft 87kts
30-Mar-19 12:10 33.873782 -118.490139 220 4090ft 101kts
30-Mar-19 12:11 33.849305 -118.510247 215 4059ft 110kts
30-Mar-19 12:12 33.821828 -118.514292 143 4008ft 110kts
30-Mar-19 12:13 33.795971 -118.494681 142 4006ft 113kts
30-Mar-19 12:14 33.770486 -118.473937 147 4043ft 110kts
30-Mar-19 12:15 33.744921 -118.453281 140 4046ft 111kts
30-Mar-19 12:16 33.719528 -118.431191 145 4000ft 113kts
30-Mar-19 12:16 33.697641 -118.413813 142 3980ft 113kts
30-Mar-19 12:18 33.672512 -118.384848 86 3961ft 107kts
30-Mar-19 12:19 33.673101 -118.348649 83 4020ft 102kts
30-Mar-19 12:20 33.675930 -118.312934 79 3978ft 108kts
30-Mar-19 12:21 33.685619 -118.279909 62 4049ft 104kts
30-Mar-19 12:21 33.696806 -118.253684 65 4071ft 106kts
30-Mar-19 12:23 33.713490 -118.216183 61 4000ft 109kts
30-Mar-19 12:24 33.726391 -118.182885 63 3957ft 109kts
30-Mar-19 12:24 33.736913 -118.156209 63 4019ft 106kts
30-Mar-19 12:26 33.753406 -118.120409 58 4076ft 105kts
30-Mar-19 12:26 33.764659 -118.093429 62 4029ft 109kts
30-Mar-19 12:28 33.782343 -118.056498 56 3997ft 108kts
30-Mar-19 12:28 33.792916 -118.028901 66 3970ft 109kts
30-Mar-19 12:29 33.806520 -117.996371 55 3944ft 109kts
30-Mar-19 12:31 33.822856 -117.958886 67 3931ft 109kts
30-Mar-19 12:31 33.833131 -117.931354 62 3948ft 107kts
30-Mar-19 12:32 33.845457 -117.899305 62 4003ft 105kts
30-Mar-19 12:33 33.858183 -117.867598 62 4030ft 107kts
30-Mar-19 12:34 33.870655 -117.835579 64 4047ft 109kts
30-Mar-19 12:35 33.884809 -117.803100 62 3930ft 108kts
30-Mar-19 12:36 33.895384 -117.770701 63 4015ft 99kts
30-Mar-19 12:37 33.907173 -117.743596 58 4122ft 98kts
30-Mar-19 12:38 33.925927 -117.716666 29 4149ft 96kts
30-Mar-19 12:39 33.948030 -117.702982 19 3839ft 91kts
30-Mar-19 12:40 33.945122 -117.720699 166 3602ft 100kts
30-Mar-19 12:41 33.917771 -117.719415 207 3614ft 103kts
30-Mar-19 12:42 33.892008 -117.734597 204 3514ft 103kts
30-Mar-19 12:43 33.867153 -117.751998 204 3568ft 102kts
30-Mar-19 12:44 33.840912 -117.766163 203 3540ft 104kts
30-Mar-19 12:45 33.815152 -117.781068 208 3116ft 100kts
30-Mar-19 12:46 33.790866 -117.796115 204 2371ft 94kts
30-Mar-19 12:47 33.767364 -117.809713 209 1911ft 94kts
30-Mar-19 12:48 33.746337 -117.823646 209 1502ft 80kts
30-Mar-19 12:49 33.725375 -117.837098 210 1108ft 91kts
30-Mar-19 12:50 33.703604 -117.850880 210 718ft 85kts
30-Mar-19 12:51 33.685473 -117.862661 209 189ft 65kts
30-Mar-19 12:52 33.678089 -117.868471 297 60ft 0kts
30-Mar-19 12:53 33.678110 -117.868522 292 60ft 0kts
30-Mar-19 12:54 33.677834 -117.868939 203 60ft 13kts
30-Mar-19 12:55 33.676546 -117.871053 303 60ft 0kts

Navigation Log

Ident Type
Flight plan parsing failed, navigation log unavailable